createdAt,value
2023-05-24T00:00:34.890Z,7.10
2023-05-24T00:03:04.994Z,3.20
2023-05-24T00:05:33.275Z,5.53
2023-05-24T00:08:01.320Z,6.40
2023-05-24T00:10:29.329Z,4.93
2023-05-24T00:12:57.626Z,11.65
2023-05-24T00:15:25.875Z,6.07
2023-05-24T00:17:54.058Z,6.53
2023-05-24T00:20:23.456Z,6.18
2023-05-24T00:22:51.736Z,7.50
2023-05-24T00:25:19.754Z,5.75
2023-05-24T00:27:47.715Z,6.10
2023-05-24T00:30:16.120Z,6.05
2023-05-24T00:32:44.206Z,4.93
2023-05-24T00:35:12.285Z,5.57
2023-05-24T00:37:45.436Z,3.92
2023-05-24T00:40:14.197Z,10.80
2023-05-24T00:42:42.232Z,6.63
2023-05-24T00:45:11.382Z,4.90
2023-05-24T00:47:39.679Z,7.15
2023-05-24T00:50:09.621Z,4.80
2023-05-24T00:52:38.066Z,8.07
2023-05-24T00:55:09.116Z,6.35
2023-05-24T00:57:37.993Z,6.38
2023-05-24T01:00:08.042Z,9.32
2023-05-24T01:02:37.928Z,5.32
2023-05-24T01:05:07.003Z,5.00
2023-05-24T01:07:52.586Z,4.95
2023-05-24T01:10:30.287Z,9.00
2023-05-24T01:13:05.749Z,7.43
2023-05-24T01:15:42.917Z,4.20
2023-05-24T01:18:17.353Z,5.07
2023-05-24T01:20:47.787Z,5.45
2023-05-24T01:23:35.639Z,3.72
2023-05-24T01:26:21.417Z,4.65
2023-05-24T01:28:52.212Z,5.75
2023-05-24T01:31:21.467Z,6.45
2023-05-24T01:33:50.984Z,5.93
2023-05-24T01:36:21.054Z,5.45
2023-05-24T01:38:50.307Z,3.72
2023-05-24T01:41:35.869Z,6.80
2023-05-24T01:44:12.659Z,4.88
2023-05-24T01:46:40.758Z,3.60
2023-05-24T01:49:22.152Z,6.57
2023-05-24T01:51:52.688Z,6.18
2023-05-24T01:54:24.443Z,8.40
2023-05-24T01:56:55.182Z,5.88
2023-05-24T01:59:27.385Z,5.13
2023-05-24T02:01:55.919Z,3.92
2023-05-24T02:04:26.316Z,5.85
2023-05-24T02:06:54.434Z,5.20
2023-05-24T02:09:22.485Z,5.35
2023-05-24T02:11:51.163Z,6.88
2023-05-24T02:14:19.858Z,4.32
2023-05-24T02:16:50.794Z,4.20
2023-05-24T02:19:20.389Z,4.40
2023-05-24T02:21:48.442Z,7.70
2023-05-24T02:24:16.506Z,4.32
2023-05-24T02:26:44.525Z,4.70
2023-05-24T02:29:12.545Z,4.72
2023-05-24T02:31:40.945Z,5.43
2023-05-24T02:34:10.493Z,4.63
2023-05-24T02:36:38.678Z,6.35
2023-05-24T02:39:06.674Z,3.83
2023-05-24T02:41:34.642Z,4.55
2023-05-24T02:44:02.735Z,6.70
2023-05-24T02:46:30.907Z,3.97
2023-05-24T02:48:59.174Z,6.05
2023-05-24T02:51:28.680Z,3.35
2023-05-24T02:53:56.704Z,5.18
2023-05-24T02:56:26.586Z,3.17
2023-05-24T02:58:55.695Z,6.07
2023-05-24T03:01:24.141Z,7.07
2023-05-24T03:03:54.457Z,4.72
2023-05-24T03:06:22.456Z,3.78
2023-05-24T03:08:51.997Z,5.20
2023-05-24T03:11:22.251Z,5.15
2023-05-24T03:13:50.842Z,3.35
2023-05-24T03:16:19.845Z,8.45
2023-05-24T03:18:50.802Z,6.32
2023-05-24T03:21:20.711Z,4.05
2023-05-24T03:23:49.170Z,4.90
2023-05-24T03:26:18.768Z,3.60
2023-05-24T03:28:47.623Z,4.78
2023-05-24T03:31:16.748Z,7.05
2023-05-24T03:33:45.171Z,5.55
2023-05-24T03:36:13.281Z,4.85
2023-05-24T03:38:41.353Z,3.92
2023-05-24T03:41:09.476Z,3.83
2023-05-24T03:43:38.888Z,5.03
2023-05-24T03:46:10.109Z,5.18
2023-05-24T03:48:38.275Z,4.45
2023-05-24T03:51:06.470Z,3.38
2023-05-24T03:53:36.237Z,3.17
2023-05-24T03:56:04.317Z,5.50
2023-05-24T03:58:32.701Z,3.80
2023-05-24T04:01:02.316Z,4.30
2023-05-24T04:03:30.486Z,7.43
2023-05-24T04:05:58.664Z,6.05
2023-05-24T04:08:26.883Z,5.57
2023-05-24T04:10:54.905Z,7.80
2023-05-24T04:13:23.465Z,7.30
2023-05-24T04:15:51.512Z,6.38
2023-05-24T04:18:21.773Z,6.45
2023-05-24T04:20:49.833Z,5.18
2023-05-24T04:23:17.905Z,5.28
2023-05-24T04:25:45.926Z,4.75
2023-05-24T04:28:15.290Z,7.13
2023-05-24T04:30:46.061Z,7.45
2023-05-24T04:33:14.951Z,6.55
2023-05-24T04:35:44.421Z,5.47
2023-05-24T04:38:13.118Z,9.05
2023-05-24T04:40:41.543Z,7.88
2023-05-24T04:43:10.710Z,7.22
2023-05-24T04:45:39.105Z,6.57
2023-05-24T04:48:07.751Z,6.45
2023-05-24T04:50:37.266Z,6.28
2023-05-24T04:53:06.668Z,8.07
2023-05-24T04:55:35.895Z,9.23
2023-05-24T04:58:04.377Z,7.30
2023-05-24T05:00:32.812Z,6.10
2023-05-24T05:03:00.995Z,6.32
2023-05-24T05:05:29.193Z,10.43
2023-05-24T05:07:57.217Z,22.65
2023-05-24T05:10:27.231Z,13.20
2023-05-24T05:12:55.350Z,28.30
2023-05-24T05:15:24.839Z,13.35
2023-05-24T05:17:52.928Z,20.17
2023-05-24T05:20:21.343Z,13.65
2023-05-24T05:22:49.786Z,15.50
2023-05-24T05:25:18.111Z,14.50
2023-05-24T05:27:47.477Z,12.63
2023-05-24T05:30:16.012Z,18.27
2023-05-24T05:32:44.360Z,8.25
2023-05-24T05:35:12.492Z,9.20
2023-05-24T05:37:40.505Z,10.27
2023-05-24T05:40:09.496Z,8.18
2023-05-24T05:42:37.584Z,12.40
2023-05-24T05:45:08.523Z,10.60
2023-05-24T05:47:37.051Z,6.13
2023-05-24T05:50:05.378Z,8.68
2023-05-24T05:52:33.461Z,10.25
2023-05-24T05:55:01.558Z,7.93
2023-05-24T05:57:29.674Z,6.55
2023-05-24T05:59:57.720Z,9.32
2023-05-24T06:02:27.302Z,6.57
2023-05-24T06:04:55.447Z,5.00
2023-05-24T06:07:23.644Z,7.88
2023-05-24T06:09:51.679Z,8.75
2023-05-24T06:12:19.642Z,7.32
2023-05-24T06:14:48.289Z,7.18
2023-05-24T06:17:16.239Z,6.88
2023-05-24T06:19:45.872Z,4.80
2023-05-24T06:22:13.862Z,4.70
2023-05-24T06:24:41.857Z,4.28
2023-05-24T06:27:09.849Z,5.32
2023-05-24T06:29:38.416Z,3.25
2023-05-24T06:32:07.197Z,10.60
2023-05-24T06:34:35.219Z,6.32
2023-05-24T06:37:05.035Z,4.47
2023-05-24T06:39:33.059Z,5.82
2023-05-24T06:42:01.960Z,3.38
2023-05-24T06:44:34.563Z,4.65
2023-05-24T06:47:03.135Z,4.95
2023-05-24T06:49:31.200Z,2.95
2023-05-24T06:51:59.177Z,4.05
2023-05-24T06:54:28.522Z,3.30
2023-05-24T06:56:56.939Z,5.07
2023-05-24T06:59:24.912Z,3.60
2023-05-24T07:01:58.382Z,3.63
2023-05-24T07:04:28.457Z,3.10
2023-05-24T07:06:57.220Z,2.90
2023-05-24T07:09:25.256Z,4.35
2023-05-24T07:11:54.778Z,5.78
2023-05-24T07:14:24.077Z,8.93
2023-05-24T07:16:52.111Z,2.90
2023-05-24T07:19:21.449Z,10.25
2023-05-24T07:21:50.569Z,2.88
2023-05-24T07:24:18.442Z,4.03
2023-05-24T07:26:46.542Z,4.50
2023-05-24T07:29:16.010Z,4.10
2023-05-24T07:31:44.049Z,3.63
2023-05-24T07:34:12.177Z,4.03
2023-05-24T07:36:40.988Z,4.15
2023-05-24T07:39:10.105Z,3.35
2023-05-24T07:41:38.224Z,3.58
2023-05-24T07:44:06.404Z,5.50
2023-05-24T07:46:35.740Z,2.42
2023-05-24T07:49:03.658Z,3.53
2023-05-24T07:51:32.564Z,4.32
2023-05-24T07:54:00.583Z,5.07
2023-05-24T07:56:28.639Z,3.38
2023-05-24T07:59:03.383Z,3.78
2023-05-24T08:01:32.165Z,5.60
2023-05-24T08:04:01.708Z,5.57
2023-05-24T08:06:29.830Z,6.18
2023-05-24T08:08:57.785Z,6.93
2023-05-24T08:11:25.932Z,2.35
2023-05-24T08:13:54.051Z,3.30
2023-05-24T08:16:22.087Z,4.82
2023-05-24T08:18:51.363Z,2.58
2023-05-24T08:21:22.536Z,3.08
2023-05-24T08:23:51.068Z,6.55
2023-05-24T08:26:21.000Z,4.47
2023-05-24T08:28:49.152Z,4.25
2023-05-24T08:31:17.879Z,3.90
2023-05-24T08:33:50.265Z,3.38
2023-05-24T08:36:18.605Z,4.03
2023-05-24T08:38:48.008Z,2.97
2023-05-24T08:41:16.091Z,3.47
2023-05-24T08:43:44.721Z,6.40
2023-05-24T08:46:15.258Z,6.95
2023-05-24T08:48:47.078Z,3.45
2023-05-24T08:51:16.455Z,3.40
2023-05-24T08:53:50.153Z,2.58
2023-05-24T08:56:18.749Z,2.97
2023-05-24T08:58:47.340Z,2.58
2023-05-24T09:01:17.882Z,2.90
2023-05-24T09:03:48.255Z,2.47
2023-05-24T09:06:19.341Z,4.03
2023-05-24T09:08:52.465Z,6.88
2023-05-24T09:11:21.009Z,3.78
2023-05-24T09:13:49.556Z,3.30
2023-05-24T09:16:17.553Z,3.47
2023-05-24T09:18:45.642Z,3.70
2023-05-24T09:21:14.175Z,3.00
2023-05-24T09:23:42.573Z,3.78
2023-05-24T09:26:12.275Z,4.15
2023-05-24T09:28:41.753Z,3.35
2023-05-24T09:31:09.852Z,5.10
2023-05-24T09:33:37.879Z,4.38
2023-05-24T09:36:07.297Z,2.60
2023-05-24T09:38:36.466Z,4.30
2023-05-24T09:41:07.128Z,4.50
2023-05-24T09:43:49.942Z,2.22
2023-05-24T09:46:18.924Z,2.20
2023-05-24T09:48:57.096Z,3.50
2023-05-24T09:51:25.774Z,4.75
2023-05-24T09:53:58.352Z,4.20
2023-05-24T09:56:26.438Z,3.38
2023-05-24T09:58:56.711Z,2.55
2023-05-24T10:01:26.873Z,3.85
2023-05-24T10:03:56.043Z,4.95
2023-05-24T10:06:25.086Z,2.72
2023-05-24T10:08:54.380Z,4.15
2023-05-24T10:11:22.886Z,4.32
2023-05-24T10:13:51.153Z,7.18
2023-05-24T10:16:20.777Z,3.88
2023-05-24T10:18:48.918Z,4.15
2023-05-24T10:21:18.786Z,2.28
2023-05-24T10:23:53.643Z,2.92
2023-05-24T10:26:26.094Z,3.33
2023-05-24T10:28:58.877Z,2.70
2023-05-24T10:31:33.227Z,3.63
2023-05-24T10:34:08.482Z,3.67
2023-05-24T10:36:40.313Z,3.50
2023-05-24T10:39:12.319Z,3.05
2023-05-24T10:41:41.919Z,3.17
2023-05-24T10:44:13.204Z,4.13
2023-05-24T10:47:08.076Z,5.78
2023-05-24T10:49:36.874Z,3.72
2023-05-24T10:52:09.707Z,2.70
2023-05-24T10:54:39.902Z,4.82
2023-05-24T10:57:09.717Z,3.45
2023-05-24T10:59:39.376Z,3.30
2023-05-24T11:02:13.728Z,6.70
2023-05-24T11:04:44.168Z,5.75
2023-05-24T11:07:13.245Z,5.32
2023-05-24T11:09:46.309Z,4.80
2023-05-24T11:12:17.420Z,2.28
2023-05-24T11:14:49.838Z,3.47
2023-05-24T11:17:20.491Z,3.47
2023-05-24T11:19:50.880Z,5.15
2023-05-24T11:22:21.146Z,2.60
2023-05-24T11:24:49.547Z,3.08
2023-05-24T11:27:18.068Z,10.02
2023-05-24T11:29:48.249Z,5.07
2023-05-24T11:32:17.399Z,5.03
2023-05-24T11:34:48.311Z,2.42
2023-05-24T11:37:18.266Z,4.55
2023-05-24T11:39:51.574Z,4.97
2023-05-24T11:42:19.656Z,3.67
2023-05-24T11:44:49.709Z,3.30
2023-05-24T11:47:17.702Z,4.55
2023-05-24T11:49:50.498Z,3.33
2023-05-24T11:52:18.560Z,4.28
2023-05-24T11:54:46.567Z,3.97
2023-05-24T11:57:15.279Z,2.85
2023-05-24T11:59:43.325Z,5.28
2023-05-24T12:02:11.439Z,2.88
2023-05-24T12:04:40.002Z,3.97
2023-05-24T12:07:13.413Z,4.93
2023-05-24T12:09:41.627Z,3.83
2023-05-24T12:12:09.977Z,3.83
2023-05-24T12:14:39.671Z,7.00
2023-05-24T12:17:16.000Z,3.30
2023-05-24T12:19:44.661Z,4.05
2023-05-24T12:22:14.111Z,4.80
2023-05-24T12:24:42.396Z,3.33
2023-05-24T12:27:10.582Z,5.43
2023-05-24T12:29:41.995Z,3.58
2023-05-24T12:32:20.087Z,7.22
2023-05-24T12:34:50.768Z,3.60
2023-05-24T12:37:19.554Z,3.70
2023-05-24T12:39:47.484Z,2.97
2023-05-24T12:42:15.487Z,3.75
2023-05-24T12:44:45.205Z,6.05
2023-05-24T12:47:13.508Z,2.85
2023-05-24T12:49:43.584Z,4.68
2023-05-24T12:52:12.706Z,4.47
2023-05-24T12:54:40.904Z,9.23
2023-05-24T12:57:09.186Z,3.05
2023-05-24T12:59:37.292Z,3.85
2023-05-24T13:02:05.284Z,3.10
2023-05-24T13:04:33.923Z,2.90
2023-05-24T13:07:04.382Z,4.55
2023-05-24T13:09:34.383Z,6.10
2023-05-24T13:12:02.947Z,3.22
2023-05-24T13:14:31.043Z,3.45
2023-05-24T13:16:59.654Z,4.65
2023-05-24T13:19:27.668Z,4.25
2023-05-24T13:21:55.657Z,4.57
2023-05-24T13:24:25.154Z,5.40
2023-05-24T13:26:54.909Z,6.18
2023-05-24T13:29:36.549Z,3.03
2023-05-24T13:32:05.341Z,3.83
2023-05-24T13:34:33.342Z,7.82
2023-05-24T13:37:01.651Z,5.32
2023-05-24T13:39:31.065Z,3.65
2023-05-24T13:42:00.913Z,4.28
2023-05-24T13:44:29.488Z,5.13
2023-05-24T13:46:57.855Z,7.28
2023-05-24T13:49:25.904Z,4.07
2023-05-24T13:51:57.234Z,7.00
2023-05-24T13:54:26.651Z,6.28
2023-05-24T13:56:57.564Z,7.38
2023-05-24T13:59:25.847Z,7.20
2023-05-24T14:01:53.930Z,5.05
2023-05-24T14:04:21.979Z,5.70
2023-05-24T14:06:50.000Z,3.63
2023-05-24T14:09:18.165Z,6.78
2023-05-24T14:11:46.137Z,4.30
2023-05-24T14:16:48.066Z,5.32
2023-05-24T14:19:17.144Z,3.20
2023-05-24T14:21:45.134Z,3.83
2023-05-24T14:24:13.149Z,4.47
2023-05-24T14:26:42.579Z,3.65
2023-05-24T14:29:10.913Z,4.35
2023-05-24T14:31:42.425Z,9.20
2023-05-24T14:34:12.028Z,3.78
2023-05-24T14:36:40.447Z,3.60
2023-05-24T14:39:08.940Z,3.47
2023-05-24T14:41:37.057Z,5.43
2023-05-24T14:44:05.319Z,6.13
2023-05-24T14:46:33.399Z,4.30
2023-05-24T14:49:03.488Z,3.65
2023-05-24T14:51:31.493Z,5.82
2023-05-24T14:53:59.457Z,4.80
2023-05-24T14:56:27.550Z,8.00
2023-05-24T14:58:55.650Z,2.95
2023-05-24T15:01:23.749Z,8.43
2023-05-24T15:03:51.872Z,3.08
2023-05-24T15:06:21.292Z,7.20
2023-05-24T15:08:49.408Z,3.95
2023-05-24T15:11:19.406Z,3.38
2023-05-24T15:13:47.534Z,3.10
2023-05-24T15:16:15.535Z,4.65
2023-05-24T15:18:43.610Z,3.55
2023-05-24T15:21:11.884Z,9.57
2023-05-24T15:23:41.676Z,5.55
2023-05-24T15:26:09.657Z,3.60
2023-05-24T15:28:37.649Z,3.30
2023-05-24T15:31:05.726Z,6.57
2023-05-24T15:33:33.932Z,5.35
2023-05-24T15:36:01.964Z,5.53
2023-05-24T15:38:30.113Z,4.80
2023-05-24T15:40:59.763Z,3.78
2023-05-24T15:43:27.795Z,4.95
2023-05-24T15:45:55.798Z,5.43
2023-05-24T15:48:23.949Z,5.35
2023-05-24T15:51:39.837Z,5.60
2023-05-24T15:53:40.044Z,5.72
2023-05-24T15:56:09.945Z,4.40
2023-05-24T15:58:38.015Z,3.75
2023-05-24T16:01:06.171Z,5.03
2023-05-24T16:03:34.267Z,6.60
2023-05-24T16:06:02.323Z,4.30
2023-05-24T16:08:30.422Z,3.58
2023-05-24T16:10:58.595Z,4.20
2023-05-24T16:13:28.040Z,4.72
2023-05-24T16:15:56.311Z,3.85
2023-05-24T16:18:25.693Z,3.92
2023-05-24T16:20:53.854Z,3.63
2023-05-24T16:23:23.781Z,5.30
2023-05-24T16:25:52.104Z,6.15
2023-05-24T16:28:23.931Z,4.25
2023-05-24T16:30:56.348Z,7.03
2023-05-24T16:33:24.943Z,3.53
2023-05-24T16:35:56.216Z,5.43
2023-05-24T16:38:25.465Z,3.38
2023-05-24T16:40:54.157Z,2.97
2023-05-24T16:43:22.700Z,3.17
2023-05-24T16:45:51.216Z,4.22
2023-05-24T16:48:23.139Z,2.60
2023-05-24T16:50:53.888Z,3.13
2023-05-24T16:53:22.938Z,3.05
2023-05-24T16:55:53.811Z,3.28
2023-05-24T16:58:21.908Z,5.43
2023-05-24T17:00:49.889Z,4.60
2023-05-24T17:03:18.144Z,6.07
2023-05-24T17:05:47.534Z,6.03
2023-05-24T17:08:15.704Z,4.72
2023-05-24T17:10:44.218Z,5.45
2023-05-24T17:13:12.407Z,4.93
2023-05-24T17:15:40.334Z,4.68
2023-05-24T17:18:08.700Z,4.05
2023-05-24T17:20:36.861Z,3.38
2023-05-24T17:23:06.421Z,2.97
2023-05-24T17:25:34.362Z,3.67
2023-05-24T17:28:02.362Z,3.45
2023-05-24T17:30:31.672Z,3.17
2023-05-24T17:32:59.714Z,4.07
2023-05-24T17:35:27.705Z,4.30
2023-05-24T17:37:55.897Z,5.05
2023-05-24T17:40:25.315Z,4.82
2023-05-24T17:42:53.285Z,3.92
2023-05-24T17:45:21.325Z,5.00
2023-05-24T17:47:49.741Z,4.20
2023-05-24T17:50:17.768Z,5.10
2023-05-24T17:52:45.845Z,3.40
2023-05-24T17:55:13.951Z,5.63
2023-05-24T17:57:43.351Z,3.33
2023-05-24T18:00:13.131Z,3.85
2023-05-24T18:02:47.047Z,3.47
2023-05-24T18:05:16.008Z,3.08
2023-05-24T18:07:44.111Z,8.00
2023-05-24T18:10:12.843Z,3.25
2023-05-24T18:12:41.348Z,3.15
2023-05-24T18:15:11.597Z,4.07
2023-05-24T18:17:39.675Z,6.82
2023-05-24T18:20:08.441Z,4.85
2023-05-24T18:22:36.448Z,3.80
2023-05-24T18:25:04.519Z,3.53
2023-05-24T18:27:32.673Z,3.42
2023-05-24T18:30:00.635Z,4.57
2023-05-24T18:32:30.173Z,5.50
2023-05-24T18:34:58.255Z,4.35
2023-05-24T18:37:26.829Z,3.75
2023-05-24T18:39:54.900Z,2.72
2023-05-24T18:42:22.949Z,3.88
2023-05-24T18:44:50.905Z,5.25
2023-05-24T18:47:18.998Z,9.15
2023-05-24T18:49:48.444Z,4.47
2023-05-24T18:52:17.950Z,3.88
2023-05-24T18:54:45.942Z,3.33
2023-05-24T18:57:13.956Z,3.63
2023-05-24T18:59:41.969Z,3.30
2023-05-24T19:02:10.030Z,5.05
2023-05-24T19:04:38.033Z,4.18
2023-05-24T19:07:08.976Z,4.72
2023-05-24T19:09:37.014Z,7.38
2023-05-24T19:12:05.783Z,4.57
2023-05-24T19:14:33.844Z,7.05
2023-05-24T19:17:01.899Z,3.70
2023-05-24T19:19:30.412Z,6.13
2023-05-24T19:21:58.421Z,3.78
2023-05-24T19:24:27.818Z,3.58
2023-05-24T19:26:55.780Z,4.60
2023-05-24T19:29:23.764Z,3.05
2023-05-24T19:31:51.874Z,4.78
2023-05-24T19:34:20.201Z,6.78
2023-05-24T19:36:48.307Z,3.90
2023-05-24T19:39:16.572Z,4.72
2023-05-24T19:41:46.092Z,7.05
2023-05-24T19:44:14.076Z,3.20
2023-05-24T19:46:43.836Z,3.45
2023-05-24T19:49:12.701Z,3.80
2023-05-24T19:51:40.769Z,3.42
2023-05-24T19:54:09.334Z,2.92
2023-05-24T19:56:37.470Z,3.53
2023-05-24T19:59:07.353Z,4.28
2023-05-24T20:01:35.758Z,3.60
2023-05-24T20:04:03.785Z,5.97
2023-05-24T20:06:32.061Z,4.18
2023-05-24T20:09:00.427Z,6.72
2023-05-24T20:11:29.034Z,5.88
2023-05-24T20:13:57.081Z,3.15
2023-05-24T20:16:26.679Z,4.93
2023-05-24T20:18:54.725Z,6.50
2023-05-24T20:21:22.709Z,5.85
2023-05-24T20:23:57.278Z,5.32
2023-05-24T20:26:26.087Z,6.38
2023-05-24T20:28:54.289Z,7.47
2023-05-24T20:31:22.396Z,8.75
2023-05-24T20:33:52.945Z,8.90
2023-05-24T20:36:20.940Z,7.68
2023-05-24T20:38:49.172Z,41.83
2023-05-24T20:41:17.496Z,159.23
2023-05-24T20:43:45.530Z,266.98
2023-05-24T20:46:14.534Z,184.77
2023-05-24T20:48:43.401Z,85.47
2023-05-24T20:51:12.770Z,55.63
2023-05-24T20:53:40.912Z,59.95
2023-05-24T20:56:08.937Z,55.78
2023-05-24T20:58:37.152Z,67.10
2023-05-24T21:01:05.230Z,42.40
2023-05-24T21:03:33.306Z,32.35
2023-05-24T21:06:01.416Z,31.15
2023-05-24T21:08:30.720Z,24.50
2023-05-24T21:10:58.642Z,38.45
2023-05-24T21:13:28.154Z,27.98
2023-05-24T21:15:56.079Z,29.08
2023-05-24T21:18:24.058Z,26.35
2023-05-24T21:20:51.980Z,22.85
2023-05-24T21:23:20.017Z,21.63
2023-05-24T21:25:49.441Z,21.85
2023-05-24T21:28:17.459Z,20.70
2023-05-24T21:30:45.482Z,16.17
2023-05-24T21:33:13.654Z,14.25
2023-05-24T21:35:41.853Z,16.38
2023-05-24T21:38:10.142Z,15.27
2023-05-24T21:40:38.190Z,18.67
2023-05-24T21:43:12.129Z,30.98
2023-05-24T21:45:40.549Z,17.40
2023-05-24T21:48:09.558Z,23.00
2023-05-24T21:50:37.619Z,13.27
2023-05-24T21:53:05.556Z,22.92
2023-05-24T21:55:33.648Z,10.95
2023-05-24T21:58:01.668Z,10.15
2023-05-24T22:00:31.760Z,9.93
2023-05-24T22:03:00.083Z,9.23
2023-05-24T22:05:28.237Z,14.95
2023-05-24T22:07:56.208Z,10.98
2023-05-24T22:10:24.107Z,10.77
2023-05-24T22:12:52.031Z,7.80
2023-05-24T22:15:19.968Z,7.55
2023-05-24T22:17:50.335Z,9.23
2023-05-24T22:20:19.194Z,5.68
2023-05-24T22:22:53.540Z,7.35
2023-05-24T22:25:21.696Z,8.63
2023-05-24T22:27:49.932Z,6.05
2023-05-24T22:30:19.491Z,7.82
2023-05-24T22:32:47.431Z,7.20
2023-05-24T22:35:16.988Z,9.60
2023-05-24T22:37:44.953Z,10.10
2023-05-24T22:40:14.069Z,6.72
2023-05-24T22:42:42.123Z,7.05
2023-05-24T22:45:11.062Z,6.53
2023-05-24T22:47:39.864Z,7.00
2023-05-24T22:50:09.058Z,8.65
2023-05-24T22:52:42.811Z,4.80
2023-05-24T22:55:11.912Z,5.70
2023-05-24T22:57:39.972Z,9.30
2023-05-24T23:00:09.338Z,9.10
2023-05-24T23:02:37.295Z,6.50
2023-05-24T23:05:05.695Z,7.50
2023-05-24T23:07:33.655Z,6.82
2023-05-24T23:10:03.139Z,4.45
2023-05-24T23:12:31.020Z,6.13
2023-05-24T23:14:59.433Z,5.47
2023-05-24T23:17:27.530Z,3.35
2023-05-24T23:19:55.640Z,4.97
2023-05-24T23:22:26.300Z,6.40
2023-05-24T23:24:54.381Z,3.97
2023-05-24T23:27:23.881Z,4.95
2023-05-24T23:29:51.816Z,5.20
2023-05-24T23:32:19.687Z,4.93
2023-05-24T23:34:47.687Z,4.47
2023-05-24T23:37:15.798Z,9.55
2023-05-24T23:39:43.745Z,5.85
2023-05-24T23:42:11.755Z,4.45
2023-05-24T23:44:41.129Z,7.40
2023-05-24T23:47:09.398Z,5.25
2023-05-24T23:49:37.499Z,5.82
2023-05-24T23:52:06.022Z,5.63
2023-05-24T23:54:34.015Z,3.75
2023-05-24T23:57:03.913Z,3.70
2023-05-24T23:59:31.885Z,4.15
